createdAt,value
2018-11-07T00:02:05.005Z,99.90
2018-11-07T00:04:33.635Z,99.90
2018-11-07T00:07:02.276Z,99.90
2018-11-07T00:09:30.961Z,99.90
2018-11-07T00:11:59.535Z,99.90
2018-11-07T00:14:28.139Z,99.90
2018-11-07T00:16:56.790Z,99.90
2018-11-07T00:19:25.452Z,99.90
2018-11-07T00:21:54.015Z,99.90
2018-11-07T00:24:22.874Z,99.90
2018-11-07T00:26:51.536Z,99.90
2018-11-07T00:29:20.072Z,99.90
2018-11-07T00:31:48.649Z,99.90
2018-11-07T00:34:17.342Z,99.90
2018-11-07T00:36:45.918Z,99.90
2018-11-07T00:39:14.418Z,99.90
2018-11-07T00:41:43.020Z,99.90
2018-11-07T00:44:11.585Z,99.90
2018-11-07T00:46:40.249Z,99.90
2018-11-07T00:49:08.892Z,99.90
2018-11-07T00:51:37.455Z,99.90
2018-11-07T00:54:06.101Z,99.90
2018-11-07T00:56:34.578Z,99.90
2018-11-07T00:59:03.043Z,99.90
2018-11-07T01:01:31.648Z,99.90
2018-11-07T01:04:00.362Z,99.90
2018-11-07T01:06:29.081Z,99.90
2018-11-07T01:08:57.561Z,99.90
2018-11-07T01:11:26.197Z,99.90
2018-11-07T01:13:54.699Z,99.90
2018-11-07T01:16:23.281Z,99.90
2018-11-07T01:18:52.045Z,99.90
2018-11-07T01:21:20.633Z,99.90
2018-11-07T01:23:49.191Z,99.90
2018-11-07T01:26:19.175Z,99.90
2018-11-07T01:28:47.697Z,99.90
2018-11-07T01:31:16.339Z,99.90
2018-11-07T01:33:44.921Z,99.90
2018-11-07T01:36:13.542Z,99.90
2018-11-07T01:38:42.200Z,99.90
2018-11-07T01:41:10.820Z,99.90
2018-11-07T01:43:39.512Z,99.90
2018-11-07T01:46:08.182Z,99.90
2018-11-07T01:48:36.820Z,99.90
2018-11-07T01:51:05.926Z,99.90
2018-11-07T01:53:34.549Z,99.90
2018-11-07T01:56:03.201Z,99.90
2018-11-07T01:58:31.961Z,99.90
2018-11-07T02:01:00.673Z,99.90
2018-11-07T02:03:29.167Z,99.90
2018-11-07T02:05:57.814Z,99.90
2018-11-07T02:08:31.576Z,99.90
2018-11-07T02:11:01.066Z,99.90
2018-11-07T02:13:29.832Z,99.90
2018-11-07T02:15:58.540Z,99.90
2018-11-07T02:18:27.231Z,99.90
2018-11-07T02:20:55.794Z,99.90
2018-11-07T02:23:24.407Z,99.90
2018-11-07T02:25:53.058Z,99.90
2018-11-07T02:28:21.560Z,99.90
2018-11-07T02:30:50.297Z,99.90
2018-11-07T02:33:18.938Z,99.90
2018-11-07T02:35:47.482Z,99.90
2018-11-07T02:38:16.120Z,99.90
2018-11-07T02:40:44.791Z,99.90
2018-11-07T02:43:13.490Z,99.90
2018-11-07T02:45:42.052Z,99.90
2018-11-07T02:48:10.924Z,99.90
2018-11-07T02:50:39.517Z,99.90
2018-11-07T02:53:08.166Z,99.90
2018-11-07T02:55:36.740Z,99.90
2018-11-07T02:58:05.485Z,99.90
2018-11-07T03:00:34.011Z,99.90
2018-11-07T03:03:02.574Z,99.90
2018-11-07T03:05:31.160Z,99.90
2018-11-07T03:07:59.818Z,99.90
2018-11-07T03:10:28.396Z,99.90
2018-11-07T03:12:57.106Z,99.90
2018-11-07T03:15:25.828Z,99.90
2018-11-07T03:17:54.544Z,99.90
2018-11-07T03:20:23.099Z,99.90
2018-11-07T03:22:51.744Z,99.90
2018-11-07T03:25:20.451Z,99.90
2018-11-07T03:27:49.059Z,99.90
2018-11-07T03:30:17.707Z,99.90
2018-11-07T03:32:46.364Z,99.90
2018-11-07T03:35:20.286Z,99.90
2018-11-07T03:37:48.988Z,99.90
2018-11-07T03:40:17.550Z,99.90
2018-11-07T03:42:46.184Z,99.90
2018-11-07T03:45:14.833Z,99.90
2018-11-07T03:47:43.683Z,99.90
2018-11-07T03:50:11.771Z,99.90
2018-11-07T03:52:39.859Z,99.90
2018-11-07T03:55:08.639Z,99.90
2018-11-07T03:57:37.414Z,99.90
2018-11-07T04:00:08.220Z,99.90
2018-11-07T04:02:37.146Z,99.90
2018-11-07T04:05:05.803Z,99.90
2018-11-07T04:07:34.386Z,99.90
2018-11-07T04:10:02.204Z,99.90
2018-11-07T04:12:30.242Z,99.90
2018-11-07T04:14:58.838Z,99.90
2018-11-07T04:17:27.585Z,99.90
2018-11-07T04:19:56.296Z,99.90
2018-11-07T04:22:24.261Z,99.90
2018-11-07T04:24:52.844Z,99.90
2018-11-07T04:27:20.604Z,99.90
2018-11-07T04:29:48.531Z,99.90
2018-11-07T04:32:17.231Z,99.90
2018-11-07T04:34:45.139Z,99.90
2018-11-07T04:37:14.150Z,99.90
2018-11-07T04:39:42.103Z,99.90
2018-11-07T04:42:10.249Z,99.90
2018-11-07T04:44:38.827Z,99.90
2018-11-07T04:47:07.767Z,99.90
2018-11-07T04:49:36.342Z,99.90
2018-11-07T04:52:04.176Z,99.90
2018-11-07T04:54:32.047Z,99.90
2018-11-07T04:56:59.810Z,99.90
2018-11-07T04:59:28.381Z,99.90
2018-11-07T05:01:59.175Z,99.90
2018-11-07T05:04:28.032Z,99.90
2018-11-07T05:06:56.858Z,99.90
2018-11-07T05:09:25.843Z,99.90
2018-11-07T05:11:54.160Z,99.90
2018-11-07T05:14:22.291Z,99.90
2018-11-07T05:16:50.205Z,99.90
2018-11-07T05:19:19.095Z,99.90
2018-11-07T05:21:47.699Z,99.90
2018-11-07T05:24:16.235Z,99.90
2018-11-07T05:26:45.120Z,99.90
2018-11-07T05:29:14.006Z,99.90
2018-11-07T05:31:43.578Z,99.90
2018-11-07T05:34:12.317Z,99.90
2018-11-07T05:36:41.363Z,99.90
2018-11-07T05:39:10.605Z,99.90
2018-11-07T05:41:39.211Z,99.90
2018-11-07T05:44:07.365Z,99.90
2018-11-07T05:46:36.048Z,99.90
2018-11-07T05:49:04.216Z,99.90
2018-11-07T05:51:33.040Z,99.90
2018-11-07T05:54:01.911Z,99.90
2018-11-07T05:56:30.527Z,99.90
2018-11-07T05:58:59.355Z,99.90
2018-11-07T06:01:27.208Z,99.90
2018-11-07T06:03:55.000Z,99.90
2018-11-07T06:06:23.639Z,99.90
2018-11-07T06:08:52.566Z,99.90
2018-11-07T06:11:21.169Z,99.90
2018-11-07T06:13:49.886Z,99.90
2018-11-07T06:16:18.185Z,99.90
2018-11-07T06:18:47.177Z,99.90
2018-11-07T06:21:15.902Z,99.90
2018-11-07T06:23:44.550Z,99.90
2018-11-07T06:26:12.543Z,99.90
2018-11-07T06:28:41.334Z,99.90
2018-11-07T06:31:09.170Z,99.90
2018-11-07T06:33:37.767Z,99.90
2018-11-07T06:36:06.872Z,99.90
2018-11-07T06:38:35.733Z,99.90
2018-11-07T06:41:04.500Z,99.90
2018-11-07T06:43:33.594Z,99.90
2018-11-07T06:46:02.173Z,99.90
2018-11-07T06:48:30.905Z,99.90
2018-11-07T06:50:59.765Z,99.90
2018-11-07T06:53:28.592Z,99.90
2018-11-07T06:55:57.296Z,99.90
2018-11-07T06:58:26.354Z,99.90
2018-11-07T07:00:54.970Z,99.90
2018-11-07T07:03:23.602Z,99.90
2018-11-07T07:05:52.442Z,99.90
2018-11-07T07:08:21.465Z,99.90
2018-11-07T07:10:50.173Z,99.90
2018-11-07T07:13:18.847Z,99.90
2018-11-07T07:15:46.759Z,99.90
2018-11-07T07:18:14.773Z,99.90
2018-11-07T07:20:43.764Z,99.90
2018-11-07T07:23:12.506Z,99.90
2018-11-07T07:25:41.491Z,99.90
2018-11-07T07:28:10.969Z,99.90
2018-11-07T07:30:39.668Z,99.90
2018-11-07T07:33:08.404Z,99.90
2018-11-07T07:35:36.929Z,99.90
2018-11-07T07:38:06.092Z,99.90
2018-11-07T07:40:34.690Z,99.90
2018-11-07T07:43:03.873Z,99.90
2018-11-07T07:45:32.542Z,99.90
2018-11-07T07:48:01.156Z,99.90
2018-11-07T07:50:29.883Z,99.90
2018-11-07T07:52:58.876Z,99.90
2018-11-07T07:55:27.601Z,99.90
2018-11-07T07:57:56.269Z,99.90
2018-11-07T08:00:25.722Z,99.90
2018-11-07T08:02:54.422Z,99.90
2018-11-07T08:05:22.524Z,99.90
2018-11-07T08:07:50.445Z,99.90
2018-11-07T08:10:19.568Z,99.90
2018-11-07T08:12:48.274Z,99.90
2018-11-07T08:15:17.686Z,99.90
2018-11-07T08:17:46.113Z,99.90
2018-11-07T08:20:14.995Z,99.90
2018-11-07T08:22:43.793Z,99.90
2018-11-07T08:25:12.582Z,99.90
2018-11-07T08:27:41.754Z,99.90
2018-11-07T08:30:10.704Z,99.90
2018-11-07T08:32:38.683Z,99.90
2018-11-07T08:35:08.665Z,99.90
2018-11-07T08:37:37.573Z,99.90
2018-11-07T08:40:09.185Z,99.90
2018-11-07T08:42:38.484Z,99.90
2018-11-07T08:45:07.882Z,99.90
2018-11-07T08:47:36.692Z,99.90
2018-11-07T08:50:07.637Z,99.90
2018-11-07T08:52:36.304Z,99.90
2018-11-07T08:55:06.084Z,99.90
2018-11-07T08:57:34.863Z,99.90
2018-11-07T09:00:03.827Z,99.90
2018-11-07T09:02:32.472Z,99.90
2018-11-07T09:05:01.039Z,99.90
2018-11-07T09:07:29.571Z,99.90
2018-11-07T09:09:58.106Z,99.90
2018-11-07T09:12:26.676Z,99.90
2018-11-07T09:14:55.276Z,99.90
2018-11-07T09:17:23.972Z,99.90
2018-11-07T09:19:52.958Z,99.90
2018-11-07T09:22:21.779Z,99.90
2018-11-07T09:24:50.393Z,99.90
2018-11-07T09:27:19.347Z,99.90
2018-11-07T09:29:48.243Z,99.90
2018-11-07T09:32:16.834Z,99.90
2018-11-07T09:34:45.618Z,99.90
2018-11-07T09:37:14.452Z,99.90
2018-11-07T09:39:43.207Z,99.90
2018-11-07T09:42:12.036Z,99.90
2018-11-07T09:44:40.613Z,99.90
2018-11-07T09:47:09.254Z,99.90
2018-11-07T09:49:37.838Z,99.90
2018-11-07T09:52:06.643Z,99.90
2018-11-07T09:54:35.204Z,99.90
2018-11-07T09:57:04.428Z,99.90
2018-11-07T09:59:33.088Z,99.90
2018-11-07T10:02:01.733Z,99.90
2018-11-07T10:04:30.653Z,99.90
2018-11-07T10:06:59.397Z,99.90
2018-11-07T10:09:28.141Z,99.90
2018-11-07T10:11:56.971Z,99.90
2018-11-07T10:14:25.563Z,99.90
2018-11-07T10:16:54.203Z,99.90
2018-11-07T10:19:22.204Z,99.90
2018-11-07T10:21:50.835Z,99.90
2018-11-07T10:24:19.771Z,99.90
2018-11-07T10:26:48.388Z,99.90
2018-11-07T10:29:17.477Z,99.90
2018-11-07T10:31:45.983Z,99.90
2018-11-07T10:34:14.681Z,99.90
2018-11-07T10:36:43.618Z,99.90
2018-11-07T10:39:12.309Z,99.90
2018-11-07T10:41:43.861Z,99.90
2018-11-07T10:44:12.547Z,99.90
2018-11-07T10:46:41.199Z,99.90
2018-11-07T10:49:10.127Z,99.90
2018-11-07T10:51:38.990Z,99.90
2018-11-07T10:54:07.762Z,99.90
2018-11-07T10:56:36.365Z,99.90
2018-11-07T10:59:05.388Z,99.90
2018-11-07T11:01:39.650Z,99.90
2018-11-07T11:04:08.203Z,99.90
2018-11-07T11:06:36.982Z,99.90
2018-11-07T11:09:07.351Z,99.90
2018-11-07T11:11:36.074Z,99.90
2018-11-07T11:14:04.826Z,99.90
2018-11-07T11:16:33.350Z,99.90
2018-11-07T11:19:02.184Z,99.90
2018-11-07T11:21:31.018Z,99.90
2018-11-07T11:23:59.717Z,99.90
2018-11-07T11:26:28.384Z,99.90
2018-11-07T11:28:57.018Z,99.90
2018-11-07T11:31:25.833Z,99.90
2018-11-07T11:33:54.563Z,99.90
2018-11-07T11:36:22.369Z,99.90
2018-11-07T11:38:50.262Z,99.90
2018-11-07T11:41:19.047Z,99.90
2018-11-07T11:43:47.555Z,98.90
2018-11-07T11:46:16.191Z,98.00
2018-11-07T11:48:44.875Z,97.20
2018-11-07T11:51:13.578Z,97.20
2018-11-07T11:53:42.089Z,96.80
2018-11-07T11:56:10.976Z,95.60
2018-11-07T11:58:39.837Z,95.10
2018-11-07T12:01:08.739Z,93.40
2018-11-07T12:03:37.499Z,91.90
2018-11-07T12:06:06.269Z,91.60
2018-11-07T12:08:34.919Z,91.80
2018-11-07T12:11:02.885Z,92.90
2018-11-07T12:13:32.148Z,94.80
2018-11-07T12:15:59.927Z,98.00
2018-11-07T12:18:27.732Z,99.90
2018-11-07T12:20:55.733Z,99.90
2018-11-07T12:23:24.795Z,99.90
2018-11-07T12:25:53.659Z,99.90
2018-11-07T12:28:22.323Z,99.90
2018-11-07T12:30:50.115Z,99.90
2018-11-07T12:33:18.664Z,99.90
2018-11-07T12:35:47.471Z,99.90
2018-11-07T12:38:16.422Z,99.90
2018-11-07T12:40:45.318Z,99.90
2018-11-07T12:43:14.149Z,99.90
2018-11-07T12:45:44.045Z,99.90
2018-11-07T12:48:12.679Z,99.90
2018-11-07T12:50:41.248Z,99.90
2018-11-07T12:53:09.888Z,99.90
2018-11-07T12:55:38.798Z,99.90
2018-11-07T12:58:08.799Z,99.90
2018-11-07T13:00:37.192Z,99.90
2018-11-07T13:03:05.980Z,99.90
2018-11-07T13:05:34.643Z,99.90
2018-11-07T13:08:03.173Z,99.90
2018-11-07T13:10:31.815Z,99.90
2018-11-07T13:13:00.768Z,99.90
2018-11-07T13:15:29.382Z,99.90
2018-11-07T13:17:58.039Z,99.90
2018-11-07T13:20:26.670Z,99.90
2018-11-07T13:22:55.796Z,99.90
2018-11-07T13:25:25.354Z,99.90
2018-11-07T13:27:54.172Z,99.90
2018-11-07T13:30:23.570Z,99.90
2018-11-07T13:32:55.649Z,99.90
2018-11-07T13:35:25.793Z,99.90
2018-11-07T13:37:57.123Z,99.90
2018-11-07T13:40:26.480Z,99.90
2018-11-07T13:42:54.525Z,99.90
2018-11-07T13:45:23.232Z,99.90
2018-11-07T13:47:52.274Z,99.90
2018-11-07T13:50:21.227Z,99.90
2018-11-07T13:52:49.852Z,99.90
2018-11-07T13:58:04.249Z,99.90
2018-11-07T14:00:32.841Z,99.90
2018-11-07T14:03:02.825Z,99.90
2018-11-07T14:05:31.729Z,99.90
2018-11-07T14:08:10.008Z,99.90
2018-11-07T14:10:43.409Z,99.90
2018-11-07T14:13:14.489Z,99.90
2018-11-07T14:15:46.165Z,99.90
2018-11-07T14:18:17.725Z,99.90
2018-11-07T14:20:51.382Z,99.90
2018-11-07T14:23:21.768Z,99.90
2018-11-07T14:25:54.930Z,99.90
2018-11-07T14:28:26.312Z,99.90
2018-11-07T14:30:55.248Z,99.90
2018-11-07T14:33:24.623Z,99.90
2018-11-07T14:35:53.275Z,99.90
2018-11-07T14:38:21.872Z,99.90
2018-11-07T14:40:50.481Z,99.90
2018-11-07T14:43:19.088Z,99.90
2018-11-07T14:45:47.680Z,99.90
2018-11-07T14:48:16.218Z,99.90
2018-11-07T14:50:44.984Z,99.90
2018-11-07T14:53:13.534Z,99.90
2018-11-07T14:55:42.094Z,99.90
2018-11-07T14:58:10.953Z,99.90
2018-11-07T15:00:39.669Z,99.90
2018-11-07T15:03:08.233Z,99.90
2018-11-07T15:05:36.947Z,99.90
2018-11-07T15:08:06.233Z,99.90
2018-11-07T15:10:34.919Z,99.90
2018-11-07T15:13:03.488Z,99.90
2018-11-07T15:15:32.114Z,99.90
2018-11-07T15:18:00.756Z,99.90
2018-11-07T15:20:29.643Z,99.90
2018-11-07T15:22:58.429Z,99.90
2018-11-07T15:25:27.170Z,99.90
2018-11-07T15:27:55.710Z,99.90
2018-11-07T15:30:24.277Z,99.90
2018-11-07T15:32:53.012Z,99.90
2018-11-07T15:35:21.582Z,99.90
2018-11-07T15:37:50.311Z,99.90
2018-11-07T15:40:19.947Z,99.90
2018-11-07T15:42:49.122Z,99.90
2018-11-07T15:45:19.342Z,99.90
2018-11-07T15:47:48.019Z,99.90
2018-11-07T15:50:21.950Z,99.90
2018-11-07T15:52:50.696Z,99.90
2018-11-07T15:55:19.303Z,99.90
2018-11-07T15:57:47.864Z,99.90
2018-11-07T16:00:17.738Z,99.90
2018-11-07T16:02:46.547Z,99.90
2018-11-07T16:05:16.323Z,99.90
2018-11-07T16:07:45.052Z,99.90
2018-11-07T16:10:15.116Z,99.90
2018-11-07T16:12:43.783Z,99.90
2018-11-07T16:15:14.162Z,99.90
2018-11-07T16:17:43.385Z,99.90
2018-11-07T16:20:13.132Z,99.90
2018-11-07T16:22:43.084Z,99.90
2018-11-07T16:25:11.690Z,99.90
2018-11-07T16:27:41.150Z,99.90
2018-11-07T16:30:12.916Z,99.90
2018-11-07T16:32:41.931Z,99.90
2018-11-07T16:35:11.969Z,99.90
2018-11-07T16:37:40.790Z,99.90
2018-11-07T16:40:12.432Z,99.90
2018-11-07T16:42:41.890Z,99.90
2018-11-07T16:45:12.038Z,99.90
2018-11-07T16:47:40.620Z,99.90
2018-11-07T16:50:10.929Z,99.90
2018-11-07T16:52:39.892Z,99.90
2018-11-07T16:55:08.678Z,99.90
2018-11-07T16:57:38.134Z,99.90
2018-11-07T17:00:13.073Z,99.90
2018-11-07T17:02:42.814Z,99.90
2018-11-07T17:05:12.470Z,99.90
2018-11-07T17:07:41.143Z,99.90
2018-11-07T17:10:11.222Z,99.90
2018-11-07T17:12:40.029Z,99.90
2018-11-07T17:15:08.718Z,99.90
2018-11-07T17:17:37.854Z,99.90
2018-11-07T17:20:08.027Z,99.90
2018-11-07T17:22:36.806Z,99.90
2018-11-07T17:25:07.123Z,99.90
2018-11-07T17:27:36.468Z,99.90
2018-11-07T17:30:04.487Z,99.90
2018-11-07T17:32:33.214Z,99.90
2018-11-07T17:35:01.080Z,99.90
2018-11-07T17:37:29.152Z,99.90
2018-11-07T17:39:58.637Z,99.90
2018-11-07T17:42:27.679Z,99.90
2018-11-07T17:44:56.798Z,99.90
2018-11-07T17:47:25.360Z,99.90
2018-11-07T17:49:55.485Z,99.90
2018-11-07T17:52:23.416Z,99.90
2018-11-07T17:54:51.198Z,99.90
2018-11-07T17:57:19.083Z,99.90
2018-11-07T17:59:47.824Z,99.90
2018-11-07T18:02:16.591Z,99.90
2018-11-07T18:04:45.219Z,99.90
2018-11-07T18:07:13.098Z,99.90
2018-11-07T18:09:41.634Z,99.90
2018-11-07T18:12:09.336Z,99.90
2018-11-07T18:14:37.304Z,99.90
2018-11-07T18:17:05.477Z,99.90
2018-11-07T18:19:33.754Z,99.90
2018-11-07T18:22:01.624Z,99.90
2018-11-07T18:24:30.306Z,99.90
2018-11-07T18:26:59.130Z,99.90
2018-11-07T18:29:27.113Z,99.90
2018-11-07T18:31:54.967Z,99.90
2018-11-07T18:34:22.821Z,99.90
2018-11-07T18:36:50.923Z,99.90
2018-11-07T18:39:19.618Z,99.90
2018-11-07T18:41:48.348Z,99.90
2018-11-07T18:44:16.212Z,99.90
2018-11-07T18:46:45.149Z,99.90
2018-11-07T18:49:14.141Z,99.90
2018-11-07T18:51:43.261Z,99.90
2018-11-07T18:54:12.346Z,99.90
2018-11-07T18:56:41.346Z,99.90
2018-11-07T18:59:10.493Z,99.90
2018-11-07T19:01:39.877Z,99.90
2018-11-07T19:04:09.541Z,99.90
2018-11-07T19:06:39.176Z,99.90
2018-11-07T19:09:09.376Z,99.90
2018-11-07T19:11:39.110Z,99.90
2018-11-07T19:14:09.142Z,99.90
2018-11-07T19:16:38.178Z,99.90
2018-11-07T19:19:07.157Z,99.90
2018-11-07T19:21:36.071Z,99.90
2018-11-07T19:24:05.436Z,99.90
2018-11-07T19:26:34.176Z,99.90
2018-11-07T19:29:02.780Z,99.90
2018-11-07T19:31:31.455Z,99.90
2018-11-07T19:34:00.571Z,99.90
2018-11-07T19:36:30.686Z,99.90
2018-11-07T19:39:00.878Z,99.90
2018-11-07T19:41:30.020Z,99.90
2018-11-07T19:43:59.013Z,99.90
2018-11-07T19:46:29.195Z,99.90
2018-11-07T19:48:59.491Z,99.90
2018-11-07T19:51:28.903Z,99.90
2018-11-07T19:53:59.586Z,99.90
2018-11-07T19:56:30.435Z,99.90
2018-11-07T19:59:00.857Z,99.90
2018-11-07T20:01:30.828Z,99.90
2018-11-07T20:03:59.856Z,99.90
2018-11-07T20:06:31.284Z,99.90
2018-11-07T20:09:02.149Z,99.90
2018-11-07T20:11:32.674Z,99.90
2018-11-07T20:14:01.872Z,99.90
2018-11-07T20:16:30.752Z,99.90
2018-11-07T20:18:59.970Z,99.90
2018-11-07T20:21:28.802Z,99.90
2018-11-07T20:23:57.898Z,99.90
2018-11-07T20:26:27.859Z,99.90
2018-11-07T20:28:57.154Z,99.90
2018-11-07T20:31:26.458Z,99.90
2018-11-07T20:33:56.536Z,99.90
2018-11-07T20:36:25.922Z,99.90
2018-11-07T20:38:54.037Z,99.90
2018-11-07T20:41:22.799Z,99.90
2018-11-07T20:43:51.074Z,99.90
2018-11-07T20:46:20.647Z,99.90
2018-11-07T20:48:48.458Z,99.90
2018-11-07T20:51:16.879Z,99.90
2018-11-07T20:53:46.077Z,99.90
2018-11-07T20:56:15.060Z,99.90
2018-11-07T20:58:43.673Z,99.90
2018-11-07T21:01:12.256Z,99.90
2018-11-07T21:03:40.858Z,99.90
2018-11-07T21:06:09.506Z,99.90
2018-11-07T21:08:38.358Z,99.90
2018-11-07T21:11:06.277Z,99.90
2018-11-07T21:13:34.943Z,99.90
2018-11-07T21:16:03.525Z,99.90
2018-11-07T21:18:32.158Z,99.90
2018-11-07T21:21:00.807Z,99.90
2018-11-07T21:23:29.420Z,99.90
2018-11-07T21:25:58.676Z,99.90
2018-11-07T21:28:27.254Z,99.90
2018-11-07T21:30:55.830Z,99.90
2018-11-07T21:33:24.367Z,99.90
2018-11-07T21:35:54.312Z,99.90
2018-11-07T21:38:22.953Z,99.90
2018-11-07T21:40:51.693Z,99.90
2018-11-07T21:43:20.983Z,99.90
2018-11-07T21:45:49.623Z,99.90
2018-11-07T21:48:18.229Z,99.90
2018-11-07T21:50:46.898Z,99.90
2018-11-07T21:53:14.624Z,99.90
2018-11-07T21:55:43.219Z,99.90
2018-11-07T21:58:11.801Z,99.90
2018-11-07T22:00:39.687Z,99.90
2018-11-07T22:03:07.516Z,99.90
2018-11-07T22:05:35.383Z,99.90
2018-11-07T22:08:03.350Z,99.90
2018-11-07T22:10:31.310Z,99.90
2018-11-07T22:12:59.099Z,99.90
2018-11-07T22:15:26.941Z,99.90
2018-11-07T22:17:54.741Z,99.90
2018-11-07T22:20:22.558Z,99.90
2018-11-07T22:22:50.319Z,99.90
2018-11-07T22:25:18.228Z,99.90
2018-11-07T22:27:46.089Z,99.90
2018-11-07T22:30:15.008Z,99.90
2018-11-07T22:32:42.792Z,99.90
2018-11-07T22:35:14.948Z,99.90
2018-11-07T22:37:44.791Z,99.90
2018-11-07T22:40:17.633Z,99.90
2018-11-07T22:42:46.183Z,99.90
2018-11-07T22:45:15.300Z,99.90
2018-11-07T22:47:43.961Z,99.90
2018-11-07T22:50:13.201Z,99.90
2018-11-07T22:52:42.233Z,99.90
2018-11-07T22:55:10.118Z,99.90
2018-11-07T22:57:38.093Z,99.90
2018-11-07T23:00:18.233Z,99.90
2018-11-07T23:02:47.168Z,99.90
2018-11-07T23:05:15.973Z,99.90
2018-11-07T23:07:46.198Z,99.90
2018-11-07T23:10:14.195Z,99.90
2018-11-07T23:12:42.098Z,99.90
2018-11-07T23:15:09.985Z,99.90
2018-11-07T23:17:38.064Z,99.90
2018-11-07T23:20:08.637Z,99.90
2018-11-07T23:22:37.399Z,99.90
2018-11-07T23:25:05.727Z,99.90
2018-11-07T23:27:33.619Z,99.90
2018-11-07T23:30:01.475Z,99.90
2018-11-07T23:32:29.315Z,99.90
2018-11-07T23:34:57.038Z,99.90
2018-11-07T23:37:24.754Z,99.90
2018-11-07T23:39:52.665Z,99.90
2018-11-07T23:42:20.500Z,99.90
2018-11-07T23:44:48.270Z,99.90
2018-11-07T23:47:15.987Z,99.90
2018-11-07T23:49:43.826Z,99.90
2018-11-07T23:52:14.600Z,99.90
2018-11-07T23:54:42.350Z,99.90
2018-11-07T23:57:10.149Z,99.90
2018-11-07T23:59:38.784Z,99.90
